Latest Weather Observations for Georgetown Airport

IDQ60801

Issued at 9:32 pm EST Sunday 26 June 2016 (issued every 30 minutes, with the page automatically refreshed every 10 minutes)

About weather observations | Map of weather stations | Latest weather observations for QLD | Other Formats
Station Details ID: 030124 Name: GEORGETOWN AIRPORT Lat: -18.30 Lon: 143.53 Height: 301.77 m
Data from the previous 72 hours. | See also: Recent months at Georgetown Airport
Date/Time
EST
Temp
°C
App
Temp
°C
Dew
Point
°C
Rel
Hum
%
Delta-T
°C
Wind Press
QNH
hPa
Press
MSL
hPa
Rain since
9am
mm
Dir  Spd
km/h
Gust
km/h
Spd
kts
Gust
kts
26/09:30pm 23.0 24.3 17.2 70 3.6 N 6 7 3 4 1015.1 - 0.0
26/09:00pm 23.6 26.2 17.6 69 3.8 CALM 0 0 0 0 1014.9 1013.8 0.0
26/08:30pm 24.0 26.6 17.5 67 4.1 CALM 0 0 0 0 1014.7 - 0.0
26/08:00pm 24.3 26.8 17.3 65 4.4 CALM 0 0 0 0 1014.5 - 0.0
26/07:30pm 24.6 26.9 16.8 62 4.9 CALM 0 0 0 0 1014.1 - 0.0
26/07:00pm 24.7 27.0 16.7 61 5.0 CALM 0 0 0 0 1013.8 - 0.0
26/06:30pm 26.1 28.3 16.6 55 5.9 CALM 0 0 0 0 1013.4 - 0.0
26/06:00pm 28.5 30.7 16.4 48 7.6 CALM 0 4 0 2 1013.2 1012.1 0.0
26/05:30pm 29.6 30.5 16.1 44 8.5 NNW 6 7 3 4 1012.9 - 0.0
26/05:00pm 30.4 31.1 16.0 41 9.1 NNW 7 15 4 8 1012.7 - 0.0
26/04:30pm 30.9 31.8 16.5 42 9.1 N 7 13 4 7 1012.6 - 0.0
26/04:00pm 30.9 30.8 16.1 41 9.3 NNW 11 15 6 8 1012.6 - 0.0
26/03:30pm 30.7 31.6 16.7 43 8.9 S 7 11 4 6 1012.7 - 0.0
26/03:00pm 29.5 30.3 16.3 45 8.3 N 7 11 4 6 1013.0 1011.9 0.0
26/02:30pm 30.4 30.1 16.4 43 8.9 N 13 19 7 10 1013.1 - 0.0
26/02:00pm 29.2 31.4 17.4 49 7.5 NNE 2 7 1 4 1013.5 - 0.0
26/01:30pm 29.4 30.3 17.6 49 7.6 ENE 9 19 5 10 1013.9 - 0.0
26/01:00pm 29.0 28.6 17.2 49 7.5 NNE 15 24 8 13 1014.5 - 0.0
26/12:30pm 29.1 29.4 17.9 50 7.2 N 13 20 7 11 1015.0 - 0.0
26/12:00pm 28.3 27.9 18.1 54 6.6 ENE 17 24 9 13 1015.7 1014.6 0.0
26/11:30am 27.5 28.2 17.9 55 6.2 NNE 11 17 6 9 1016.1 - 0.0
26/11:00am 27.0 27.6 17.8 57 5.9 E 11 19 6 10 1016.3 - 0.0
26/10:30am 26.8 27.2 18.1 59 5.6 NNE 13 20 7 11 1016.7 - 0.0
26/10:00am 25.6 25.7 17.5 61 5.1 NE 13 19 7 10 1017.0 - 0.0
26/09:30am 25.0 25.6 17.7 64 4.6 ENE 11 15 6 8 1017.2 - 0.0
26/09:00am 23.9 24.1 17.6 68 4.0 E 13 20 7 11 1017.0 1015.9 0.0
26/08:30am 22.2 23.4 16.9 72 3.3 E 6 9 3 5 1017.0 - 0.0
26/08:00am 20.2 21.4 16.8 81 2.1 SE 6 7 3 4 1016.9 - 0.0
26/07:30am 17.3 19.4 16.2 93 0.7 CALM 0 0 0 0 1016.6 - 0.0
26/07:00am 16.7 18.5 15.4 92 0.8 CALM 0 0 0 0 1016.4 - 0.0
26/06:30am 17.4 19.2 15.6 89 1.1 CALM 0 0 0 0 1016.0 - 0.0
26/06:00am 17.7 19.6 15.7 88 1.2 CALM 0 2 0 1 1015.8 1014.7 0.0
26/05:30am 18.1 18.8 15.5 85 1.5 NE 6 6 3 3 1015.3 - 0.0
26/05:00am 18.4 19.1 15.6 84 1.7 NE 6 7 3 4 1015.2 - 0.0
26/04:30am 19.0 19.9 16.0 83 1.8 ENE 6 9 3 5 1014.9 - 0.0
26/04:00am 19.1 20.0 16.1 83 1.8 ENE 6 7 3 4 1014.6 - 0.0
26/03:30am 18.1 19.8 15.2 83 1.7 CALM 0 0 0 0 1014.5 - 0.0
26/03:00am 19.4 20.5 15.7 79 2.2 E 4 7 2 4 1014.1 1013.0 0.0
26/02:30am 19.5 21.0 15.6 78 2.3 E 2 7 1 4 1014.1 - 0.0
26/02:00am 20.3 20.9 15.9 76 2.7 E 7 9 4 5 1014.6 - 0.0
26/01:30am 20.7 21.4 16.1 75 2.8 ENE 7 11 4 6 1014.8 - 0.0
26/01:00am 20.7 21.3 15.7 73 3.0 ENE 7 11 4 6 1014.9 - 0.0
26/12:30am 18.6 19.8 13.7 73 2.8 CALM 0 0 0 0 1015.0 - 0.0
26/12:00am 19.0 19.8 13.8 72 3.0 SE 2 6 1 3 1014.8 1013.7 0.0
 
Date/Time
EST
Temp
°C
App
Temp
°C
Dew
Point
°C
Rel
Hum
%
Delta-T
°C
Wind Press
QNH
hPa
Press
MSL
hPa
Rain since
9am
mm
Dir  Spd
km/h
Gust
km/h
Spd
kts
Gust
kts
25/11:30pm 19.1 19.2 13.9 72 3.0 ESE 6 7 3 4 1015.0 - 0.0
25/11:00pm 19.4 20.2 13.6 69 3.4 ESE 2 7 1 4 1015.1 - 0.0
25/10:30pm 19.8 19.8 13.7 68 3.5 ESE 6 7 3 4 1015.2 - 0.0
25/10:00pm 20.4 20.2 13.1 63 4.2 ESE 6 7 3 4 1015.2 - 0.0
25/09:30pm 20.9 22.0 13.4 62 4.4 CALM 0 0 0 0 1015.3 - 0.0
25/09:00pm 21.5 22.5 13.2 59 4.8 CALM 0 0 0 0 1015.4 1014.3 0.0
25/08:30pm 22.3 23.3 13.1 56 5.4 CALM 0 0 0 0 1015.3 - 0.0
25/08:00pm 23.4 23.1 12.7 51 6.2 E 6 9 3 5 1015.2 - 0.0
25/07:30pm 25.1 24.7 13.0 47 7.1 ESE 7 11 4 6 1015.0 - 0.0
25/07:00pm 25.8 25.0 13.0 45 7.6 ESE 9 13 5 7 1014.8 - 0.0
25/06:30pm 26.2 25.7 12.6 43 8.0 E 7 9 4 5 1014.6 - 0.0
25/06:00pm 27.4 26.6 11.8 38 9.1 ESE 7 9 4 5 1014.5 1013.3 0.0
25/05:30pm 29.1 28.3 11.6 33 10.2 ESE 7 11 4 6 1014.3 - 0.0
25/05:00pm 29.7 28.9 11.2 31 10.8 SE 6 9 3 5 1014.0 - 0.0
25/04:30pm 29.8 28.8 10.9 31 11.0 SE 7 11 4 6 1013.9 - 0.0
25/04:00pm 29.8 28.7 11.8 33 10.6 NNE 9 15 5 8 1013.9 - 0.0
25/03:30pm 29.6 28.4 11.6 33 10.6 E 9 15 5 8 1014.0 - 0.0
25/03:00pm 29.9 29.2 11.9 33 10.6 E 7 13 4 7 1014.0 1012.9 0.0
25/02:30pm 29.4 28.4 11.0 32 10.7 SE 7 15 4 8 1014.3 - 0.0
25/02:00pm 29.1 28.3 11.6 33 10.2 SSE 7 13 4 7 1014.7 - 0.0
25/01:30pm 29.4 28.0 12.3 34 10.1 ENE 11 15 6 8 1015.0 - 0.0
25/01:00pm 28.8 26.0 11.4 34 10.1 ENE 17 28 9 15 1015.5 - 0.0
25/12:30pm 28.7 27.3 12.2 36 9.7 ESE 11 26 6 14 1015.9 - 0.0
25/12:00pm 27.6 25.9 11.2 36 9.5 ESE 11 19 6 10 1016.4 1015.4 0.0
25/11:30am 27.7 26.1 11.7 37 9.3 ESE 11 20 6 11 1016.8 - 0.0
25/11:00am 26.6 24.2 11.5 39 8.7 ESE 15 24 8 13 1017.0 - 0.0
25/10:30am 25.8 22.6 11.2 40 8.4 E 19 26 10 14 1017.1 - 0.0
25/10:00am 25.4 22.8 11.9 43 7.8 E 17 28 9 15 1017.1 - 0.0
25/09:30am 24.8 21.7 11.7 44 7.5 E 19 28 10 15 1017.2 - 0.0
25/09:00am 23.3 19.6 11.4 47 6.7 ESE 22 33 12 18 1017.0 1015.9 0.0
25/08:30am 22.7 19.9 11.4 49 6.4 ESE 17 28 9 15 1016.6 - 0.0
25/08:00am 21.9 19.0 11.0 50 6.1 ESE 17 28 9 15 1016.4 - 0.0
25/07:30am 21.4 19.4 10.3 49 6.1 ESE 11 20 6 11 1016.2 - 0.0
25/07:00am 20.8 18.7 9.7 49 6.0 ESE 11 19 6 10 1016.0 - 0.0
25/06:30am 20.8 19.0 9.4 48 6.2 ESE 9 17 5 9 1015.8 - 0.0
25/06:00am 21.2 19.0 9.4 47 6.4 SE 11 17 6 9 1015.5 1014.4 0.0
25/05:30am 20.8 19.0 9.4 48 6.2 E 9 15 5 8 1015.3 - 0.0
25/05:00am 21.5 19.8 9.7 47 6.4 ESE 9 15 5 8 1015.2 - 0.0
25/04:30am 21.5 19.7 9.4 46 6.6 SSE 9 15 5 8 1015.0 - 0.0
25/04:00am 21.4 19.6 9.6 47 6.4 SE 9 13 5 7 1014.8 - 0.0
25/03:30am 20.6 19.4 9.5 49 6.0 SE 6 9 3 5 1014.7 - 0.0
25/03:00am 20.0 18.5 9.3 50 5.7 SE 7 11 4 6 1014.9 1013.8 0.0
25/02:30am 19.4 17.3 8.4 49 5.8 S 9 11 5 6 1015.0 - 0.0
25/02:00am 19.8 18.1 8.2 47 6.1 S 7 11 4 6 1015.3 - 0.0
25/01:30am 20.0 18.2 8.0 46 6.3 S 7 11 4 6 1015.5 - 0.0
25/01:00am 20.0 17.7 7.4 44 6.5 SSW 9 11 5 6 1015.5 - 0.0
25/12:30am 20.3 17.9 7.0 42 6.9 S 9 11 5 6 1015.6 - 0.0
25/12:00am 19.8 17.9 6.9 43 6.6 S 6 7 3 4 1015.7 1014.6 0.0
 
Date/Time
EST
Temp
°C
App
Temp
°C
Dew
Point
°C
Rel
Hum
%
Delta-T
°C
Wind Press
QNH
hPa
Press
MSL
hPa
Rain since
9am
mm
Dir  Spd
km/h
Gust
km/h
Spd
kts
Gust
kts
24/11:30pm 20.8 19.1 7.4 42 7.0 SSE 6 7 3 4 1015.9 - 0.0
24/11:00pm 22.3 19.8 6.5 36 8.2 S 9 11 5 6 1015.9 - 0.0
24/10:30pm 23.1 20.6 6.4 34 8.7 S 9 15 5 8 1015.9 - 0.0
24/10:00pm 23.6 21.0 6.0 32 9.1 S 9 13 5 7 1015.8 - 0.0
24/09:30pm 23.9 20.9 6.2 32 9.2 S 11 15 6 8 1015.7 - 0.0
24/09:00pm 23.3 20.5 5.2 31 9.2 SSW 9 11 5 6 1015.6 1014.5 0.0
24/08:30pm 23.1 19.8 4.6 30 9.3 SSW 11 13 6 7 1015.4 - 0.0
24/08:00pm 22.7 20.2 4.7 31 9.0 SSW 7 9 4 5 1015.1 - 0.0
24/07:30pm 23.9 21.3 4.3 28 9.8 SSW 7 9 4 5 1014.8 - 0.0
24/07:00pm 25.6 22.6 4.1 25 10.9 SSW 9 9 5 5 1014.5 - 0.0
24/06:30pm 26.5 23.8 3.7 23 11.5 SSW 7 7 4 4 1014.2 - 0.0
24/06:00pm 28.7 26.4 5.5 23 12.2 SSW 7 11 4 6 1013.9 1012.8 0.0
24/05:30pm 30.4 27.8 6.3 22 13.0 S 9 11 5 6 1013.6 - 0.0
24/05:00pm 31.7 29.6 6.7 21 13.7 S 7 11 4 6 1013.4 - 0.0
24/04:30pm 31.4 29.3 6.5 21 13.6 SSE 7 11 4 6 1013.2 - 0.0
24/04:00pm 32.0 28.8 7.0 21 13.8 SW 13 24 7 13 1013.1 - 0.0
24/03:30pm 31.6 29.6 7.3 22 13.4 SW 7 17 4 9 1013.2 - 0.0
24/03:00pm 32.1 29.6 8.4 23 13.4 SSW 11 19 6 10 1013.2 1012.0 0.0
24/02:30pm 31.7 28.8 8.0 23 13.2 WSW 13 22 7 12 1013.2 - 0.0
24/02:00pm 31.8 28.9 8.1 23 13.3 WSW 13 20 7 11 1013.5 - 0.0
24/01:30pm 31.1 28.2 8.2 24 12.8 SSW 13 20 7 11 1013.8 - 0.0
24/01:00pm 30.8 28.7 9.6 27 12.1 SSW 11 20 6 11 1014.3 - 0.0
24/12:30pm 30.2 28.7 10.7 30 11.3 S 9 17 5 9 1015.0 - 0.0
24/12:00pm 30.7 28.6 11.1 30 11.4 SW 13 20 7 11 1015.6 1014.5 0.0
24/11:30am 29.4 27.4 11.5 33 10.5 SSW 13 20 7 11 1016.1 - 0.0
24/11:00am 29.3 27.6 12.3 35 10.1 SW 13 24 7 13 1016.4 - 0.0
24/10:30am 28.4 27.9 12.7 38 9.3 SSW 7 11 4 6 1016.6 - 0.0
24/10:00am 28.0 29.1 15.6 46 7.7 E 4 9 2 5 1016.8 - 0.0
24/09:30am 26.0 27.3 17.6 60 5.3 E 7 9 4 5 1016.9 - 0.0
24/09:00am 24.3 25.6 17.1 64 4.5 E 6 9 3 5 1016.7 1015.6 0.0
24/08:30am 22.3 22.9 15.2 64 4.3 SE 6 7 3 4 1016.5 - 0.0
24/08:00am 20.0 21.3 14.1 69 3.5 CALM 0 6 0 3 1016.1 - 0.0
24/07:30am 17.5 17.7 14.2 81 1.9 S 6 7 3 4 1015.7 - 0.0
24/07:00am 16.3 16.2 14.0 86 1.3 SSW 7 9 4 5 1015.2 - 0.0
24/06:30am 16.2 16.5 14.4 89 1.0 SSW 6 7 3 4 1014.7 - 0.0
24/06:00am 16.4 16.6 14.6 89 1.0 SSW 7 9 4 5 1014.2 1013.1 0.0
24/05:30am 17.1 18.1 15.3 89 1.1 SSW 4 7 2 4 1014.0 - 0.0
24/05:00am 17.2 18.1 15.0 87 1.3 SSE 4 9 2 5 1013.9 - 0.0
24/04:30am 17.8 19.5 15.1 84 1.6 CALM 0 0 0 0 1013.6 - 0.0
24/04:00am 17.7 19.2 14.6 82 1.8 CALM 0 6 0 3 1013.6 - 0.0
24/03:30am 18.0 18.4 14.7 81 1.9 ESE 6 11 3 6 1013.9 - 0.0
24/03:00am 18.7 19.2 15.0 79 2.2 SE 6 7 3 4 1013.8 1012.7 0.0
24/02:30am 18.9 19.1 14.6 76 2.5 SSW 7 9 4 5 1014.0 - 0.0
24/02:00am 19.6 20.2 15.3 76 2.6 SSW 6 9 3 5 1014.2 - 0.0
24/01:30am 19.6 20.2 15.7 78 2.3 SSW 7 9 4 5 1014.2 - 0.0
24/01:00am 20.6 21.4 16.4 77 2.6 SSW 7 9 4 5 1014.3 - 0.0
24/12:30am 20.4 21.1 16.2 77 2.6 WSW 7 9 4 5 1014.3 - 0.0
24/12:00am 21.4 23.3 15.7 70 3.5 CALM 0 0 0 0 1014.3 1013.2 0.0
 
Date/Time
EST
Temp
°C
App
Temp
°C
Dew
Point
°C
Rel
Hum
%
Delta-T
°C
Wind Press
QNH
hPa
Press
MSL
hPa
Rain since
9am
mm
Dir  Spd
km/h
Gust
km/h
Spd
kts
Gust
kts
23/11:30pm 22.2 24.0 15.5 66 4.1 CALM 0 0 0 0 1014.2 - 0.0
23/11:00pm 23.6 24.4 15.9 62 4.7 WSW 6 7 3 4 1014.5 - 0.0
23/10:30pm 24.1 26.1 16.9 64 4.5 W 2 6 1 3 1014.3 - 0.0
23/10:00pm 25.3 26.6 17.0 60 5.2 W 6 7 3 4 1014.0 - 0.0

Other Formats:

Comma delimited format used in spreadsheet applications
http://www.bom.gov.au/fwo/IDQ60801/IDQ60801.94274.axf

JavaScript Object Notation format (JSON) in row-major order
http://www.bom.gov.au/fwo/IDQ60801/IDQ60801.94274.json